createdAt,value
2022-08-30T00:02:21.940Z,16.20
2022-08-30T00:04:54.312Z,16.20
2022-08-30T00:07:22.378Z,16.20
2022-08-30T00:09:49.957Z,16.20
2022-08-30T00:12:17.364Z,16.20
2022-08-30T00:14:44.901Z,16.20
2022-08-30T00:17:12.591Z,16.20
2022-08-30T00:19:40.088Z,16.20
2022-08-30T00:22:07.447Z,16.10
2022-08-30T00:24:34.880Z,16.10
2022-08-30T00:27:02.272Z,16.00
2022-08-30T00:29:30.238Z,16.00
2022-08-30T00:31:57.699Z,16.00
2022-08-30T00:34:25.190Z,16.00
2022-08-30T00:36:52.672Z,15.90
2022-08-30T00:39:20.486Z,15.90
2022-08-30T00:41:48.663Z,15.90
2022-08-30T00:44:16.024Z,15.90
2022-08-30T00:46:43.522Z,15.80
2022-08-30T00:49:13.008Z,15.80
2022-08-30T00:51:41.812Z,15.70
2022-08-30T00:54:09.949Z,15.70
2022-08-30T00:56:37.348Z,15.70
2022-08-30T00:59:06.649Z,15.60
2022-08-30T01:01:36.068Z,15.60
2022-08-30T01:04:06.814Z,15.60
2022-08-30T01:06:34.845Z,15.60
2022-08-30T01:09:04.281Z,15.60
2022-08-30T01:11:35.440Z,15.70
2022-08-30T01:14:03.197Z,15.60
2022-08-30T01:16:35.323Z,15.70
2022-08-30T01:19:03.845Z,15.70
2022-08-30T01:21:46.401Z,15.70
2022-08-30T01:24:14.083Z,15.70
2022-08-30T01:26:41.759Z,15.70
2022-08-30T01:29:14.886Z,15.70
2022-08-30T01:31:42.286Z,15.70
2022-08-30T01:34:10.063Z,15.70
2022-08-30T01:36:44.770Z,15.70
2022-08-30T01:39:17.019Z,15.70
2022-08-30T01:41:44.508Z,15.70
2022-08-30T01:44:13.604Z,15.70
2022-08-30T01:46:45.652Z,15.70
2022-08-30T01:49:16.992Z,15.70
2022-08-30T01:51:46.657Z,15.80
2022-08-30T01:54:14.698Z,15.70
2022-08-30T01:56:42.112Z,15.70
2022-08-30T01:59:09.517Z,15.70
2022-08-30T02:01:37.612Z,15.70
2022-08-30T02:04:06.332Z,15.70
2022-08-30T02:06:34.726Z,15.80
2022-08-30T02:09:02.171Z,15.80
2022-08-30T02:11:29.675Z,15.80
2022-08-30T02:13:57.076Z,15.80
2022-08-30T02:16:25.083Z,15.90
2022-08-30T02:18:54.062Z,15.90
2022-08-30T02:21:21.932Z,15.80
2022-08-30T02:23:49.679Z,15.90
2022-08-30T02:26:18.324Z,15.90
2022-08-30T02:28:49.881Z,15.90
2022-08-30T02:31:22.395Z,15.90
2022-08-30T02:33:52.848Z,15.90
2022-08-30T02:36:21.624Z,15.80
2022-08-30T02:38:50.939Z,15.80
2022-08-30T02:41:19.338Z,15.80
2022-08-30T02:43:47.098Z,15.70
2022-08-30T02:46:14.571Z,15.70
2022-08-30T02:48:42.088Z,15.70
2022-08-30T02:51:13.216Z,15.70
2022-08-30T02:53:43.694Z,15.70
2022-08-30T02:56:12.994Z,15.70
2022-08-30T02:58:42.554Z,15.60
2022-08-30T03:01:13.052Z,15.60
2022-08-30T03:03:42.061Z,15.60
2022-08-30T03:06:10.507Z,15.50
2022-08-30T03:08:38.165Z,15.50
2022-08-30T03:11:06.059Z,15.40
2022-08-30T03:13:33.756Z,15.40
2022-08-30T03:16:01.548Z,15.40
2022-08-30T03:18:29.055Z,15.40
2022-08-30T03:20:56.755Z,15.40
2022-08-30T03:23:24.382Z,15.40
2022-08-30T03:25:53.523Z,15.40
2022-08-30T03:28:21.398Z,15.30
2022-08-30T03:30:48.801Z,15.30
2022-08-30T03:33:16.501Z,15.20
2022-08-30T03:35:46.033Z,15.10
2022-08-30T03:38:13.498Z,15.20
2022-08-30T03:40:41.095Z,15.20
2022-08-30T03:43:08.676Z,15.20
2022-08-30T03:45:36.953Z,15.10
2022-08-30T03:48:05.061Z,15.10
2022-08-30T03:50:32.808Z,15.10
2022-08-30T03:53:01.434Z,15.00
2022-08-30T03:55:30.028Z,15.10
2022-08-30T03:57:57.619Z,15.10
2022-08-30T04:00:25.787Z,15.00
2022-08-30T04:02:53.224Z,15.00
2022-08-30T04:05:21.186Z,15.00
2022-08-30T04:07:48.606Z,15.00
2022-08-30T04:10:16.673Z,15.00
2022-08-30T04:12:48.939Z,15.10
2022-08-30T04:15:18.045Z,15.10
2022-08-30T04:17:45.702Z,15.10
2022-08-30T04:20:13.135Z,15.10
2022-08-30T04:22:40.649Z,15.10
2022-08-30T04:25:08.658Z,15.10
2022-08-30T04:27:45.310Z,15.10
2022-08-30T04:30:14.421Z,15.10
2022-08-30T04:32:41.843Z,15.10
2022-08-30T04:35:10.466Z,15.10
2022-08-30T04:37:38.854Z,15.10
2022-08-30T04:40:07.309Z,15.00
2022-08-30T04:42:35.614Z,15.10
2022-08-30T04:45:06.660Z,15.10
2022-08-30T04:47:34.027Z,15.00
2022-08-30T04:50:01.577Z,15.00
2022-08-30T04:52:29.265Z,15.20
2022-08-30T04:54:57.371Z,15.30
2022-08-30T04:57:26.087Z,15.20
2022-08-30T04:59:54.610Z,15.30
2022-08-30T05:02:22.515Z,15.40
2022-08-30T05:05:08.329Z,15.30
2022-08-30T05:07:36.143Z,15.40
2022-08-30T05:10:09.100Z,15.30
2022-08-30T05:12:39.858Z,15.40
2022-08-30T05:15:08.201Z,15.40
2022-08-30T05:17:38.119Z,15.40
2022-08-30T05:20:08.468Z,15.40
2022-08-30T05:22:37.609Z,15.40
2022-08-30T05:25:05.697Z,15.40
2022-08-30T05:27:33.494Z,15.40
2022-08-30T05:30:06.315Z,15.40
2022-08-30T05:32:33.828Z,15.40
2022-08-30T05:35:01.271Z,15.40
2022-08-30T05:37:28.836Z,15.40
2022-08-30T05:39:56.691Z,15.40
2022-08-30T05:42:24.191Z,15.50
2022-08-30T05:44:53.467Z,15.50
2022-08-30T05:47:21.732Z,15.50
2022-08-30T05:49:49.194Z,15.50
2022-08-30T05:52:18.217Z,15.50
2022-08-30T05:54:51.410Z,15.60
2022-08-30T05:57:20.013Z,15.60
2022-08-30T05:59:47.823Z,15.60
2022-08-30T06:02:15.346Z,15.60
2022-08-30T06:04:43.294Z,15.60
2022-08-30T06:07:13.046Z,15.60
2022-08-30T06:09:42.799Z,15.60
2022-08-30T06:12:10.366Z,15.70
2022-08-30T06:14:39.401Z,15.70
2022-08-30T06:17:07.206Z,15.70
2022-08-30T06:19:34.601Z,15.70
2022-08-30T06:22:02.110Z,15.70
2022-08-30T06:24:53.733Z,15.70
2022-08-30T06:27:17.197Z,15.70
2022-08-30T06:29:45.156Z,15.80
2022-08-30T06:32:12.545Z,15.80
2022-08-30T06:34:40.003Z,15.90
2022-08-30T06:37:07.400Z,15.90
2022-08-30T06:39:36.377Z,15.90
2022-08-30T06:42:03.924Z,16.00
2022-08-30T06:44:31.328Z,16.00
2022-08-30T06:46:59.008Z,16.00
2022-08-30T06:49:26.568Z,16.00
2022-08-30T06:51:54.043Z,16.10
2022-08-30T06:54:22.853Z,16.10
2022-08-30T06:56:58.835Z,16.10
2022-08-30T06:59:27.298Z,16.10
2022-08-30T07:01:56.008Z,16.20
2022-08-30T07:04:24.051Z,16.10
2022-08-30T07:06:51.492Z,16.20
2022-08-30T07:09:19.505Z,16.20
2022-08-30T07:11:51.531Z,16.20
2022-08-30T07:14:20.070Z,16.30
2022-08-30T07:16:51.049Z,16.30
2022-08-30T07:19:20.591Z,16.40
2022-08-30T07:21:49.605Z,16.40
2022-08-30T07:24:17.505Z,16.40
2022-08-30T07:26:51.919Z,16.40
2022-08-30T07:29:21.296Z,16.40
2022-08-30T07:31:51.880Z,16.40
2022-08-30T07:34:20.617Z,16.40
2022-08-30T07:36:49.867Z,16.50
2022-08-30T07:39:17.387Z,16.50
2022-08-30T07:41:45.022Z,16.50
2022-08-30T07:44:12.532Z,16.50
2022-08-30T07:46:41.201Z,16.60
2022-08-30T07:49:11.246Z,16.60
2022-08-30T07:51:40.101Z,16.70
2022-08-30T07:54:07.898Z,16.80
2022-08-30T07:56:36.282Z,16.80
2022-08-30T07:59:04.313Z,16.80
2022-08-30T08:01:32.406Z,16.90
2022-08-30T08:03:59.944Z,17.00
2022-08-30T08:06:27.768Z,17.10
2022-08-30T08:09:02.433Z,17.10
2022-08-30T08:11:33.691Z,17.20
2022-08-30T08:14:02.232Z,17.10
2022-08-30T08:16:34.634Z,17.20
2022-08-30T08:19:02.340Z,17.30
2022-08-30T08:21:30.022Z,17.40
2022-08-30T08:23:58.304Z,17.40
2022-08-30T08:26:25.744Z,17.40
2022-08-30T08:28:53.196Z,17.50
2022-08-30T08:31:25.410Z,17.60
2022-08-30T08:33:56.449Z,17.70
2022-08-30T08:36:24.355Z,17.70
2022-08-30T08:38:51.959Z,17.70
2022-08-30T08:41:39.673Z,17.60
2022-08-30T08:44:34.750Z,17.70
2022-08-30T08:47:08.317Z,17.70
2022-08-30T08:49:37.712Z,17.70
2022-08-30T08:52:31.564Z,17.80
2022-08-30T08:55:07.337Z,17.90
2022-08-30T08:57:36.540Z,18.00
2022-08-30T09:00:06.879Z,18.00
2022-08-30T09:02:45.253Z,18.10
2022-08-30T09:05:20.759Z,18.10
2022-08-30T09:07:52.382Z,18.10
2022-08-30T09:10:40.489Z,18.20
2022-08-30T09:13:13.452Z,18.20
2022-08-30T09:15:51.025Z,18.30
2022-08-30T09:18:45.552Z,18.40
2022-08-30T09:21:20.670Z,18.50
2022-08-30T09:23:50.655Z,18.70
2022-08-30T09:26:33.596Z,18.70
2022-08-30T09:29:01.262Z,18.80
2022-08-30T09:31:47.405Z,18.90
2022-08-30T09:34:21.547Z,19.00
2022-08-30T09:36:53.914Z,19.10
2022-08-30T09:39:35.422Z,19.20
2022-08-30T09:42:19.179Z,19.20
2022-08-30T09:44:47.059Z,19.30
2022-08-30T09:47:31.751Z,19.30
2022-08-30T09:50:09.965Z,19.30
2022-08-30T09:53:12.419Z,19.30
2022-08-30T09:55:49.318Z,19.40
2022-08-30T09:58:50.694Z,19.60
2022-08-30T10:01:27.981Z,19.70
2022-08-30T10:04:07.823Z,19.80
2022-08-30T10:06:42.221Z,19.80
2022-08-30T10:09:27.663Z,19.90
2022-08-30T10:12:15.455Z,19.90
2022-08-30T10:14:45.823Z,20.20
2022-08-30T10:17:26.886Z,20.30
2022-08-30T10:20:32.757Z,20.30
2022-08-30T10:23:21.313Z,20.40
2022-08-30T10:25:57.813Z,20.50
2022-08-30T10:28:34.259Z,20.40
2022-08-30T10:31:17.488Z,20.30
2022-08-30T10:33:51.113Z,20.30
2022-08-30T10:36:22.203Z,20.40
2022-08-30T10:38:52.499Z,20.50
2022-08-30T10:41:31.890Z,20.50
2022-08-30T10:44:02.443Z,20.70
2022-08-30T10:46:39.828Z,20.70
2022-08-30T10:49:15.734Z,20.80
2022-08-30T10:52:00.854Z,20.90
2022-08-30T10:54:52.931Z,21.10
2022-08-30T10:57:22.025Z,21.10
2022-08-30T10:59:54.882Z,21.20
2022-08-30T11:02:50.300Z,21.20
2022-08-30T11:05:29.862Z,21.30
2022-08-30T11:08:34.708Z,21.50
2022-08-30T11:11:24.103Z,21.40
2022-08-30T11:13:55.867Z,21.50
2022-08-30T11:16:46.655Z,21.70
2022-08-30T11:19:27.056Z,22.20
2022-08-30T11:22:30.044Z,22.50
2022-08-30T11:25:14.073Z,22.50
2022-08-30T11:27:49.287Z,22.40
2022-08-30T11:30:26.924Z,22.40
2022-08-30T11:33:29.027Z,22.50
2022-08-30T11:35:56.768Z,22.90
2022-08-30T11:38:26.915Z,22.60
2022-08-30T11:40:59.015Z,22.40
2022-08-30T11:43:36.575Z,22.20
2022-08-30T11:46:27.306Z,22.30
2022-08-30T11:49:02.937Z,22.60
2022-08-30T11:52:26.491Z,22.80
2022-08-30T11:54:53.250Z,22.70
2022-08-30T11:57:29.860Z,22.80
2022-08-30T12:00:28.575Z,22.70
2022-08-30T12:03:00.113Z,22.70
2022-08-30T12:05:39.990Z,22.90
2022-08-30T12:08:20.514Z,23.10
2022-08-30T12:10:56.380Z,23.40
2022-08-30T12:13:37.063Z,23.50
2022-08-30T12:16:11.758Z,23.70
2022-08-30T12:18:43.265Z,24.10
2022-08-30T12:21:27.114Z,24.40
2022-08-30T12:24:19.975Z,24.40
2022-08-30T12:26:50.312Z,24.20
2022-08-30T12:29:31.134Z,23.90
2022-08-30T12:32:08.318Z,24.00
2022-08-30T12:34:49.732Z,23.40
2022-08-30T12:37:26.319Z,23.20
2022-08-30T12:40:12.635Z,23.30
2022-08-30T12:42:56.090Z,23.50
2022-08-30T12:45:28.021Z,23.20
2022-08-30T12:48:04.358Z,23.00
2022-08-30T12:50:38.202Z,22.80
2022-08-30T12:53:13.959Z,22.80
2022-08-30T12:55:56.068Z,22.60
2022-08-30T12:58:37.722Z,22.40
2022-08-30T13:01:33.428Z,22.30
2022-08-30T13:04:01.224Z,22.20
2022-08-30T13:07:01.823Z,22.20
2022-08-30T13:09:35.545Z,22.20
2022-08-30T13:12:23.181Z,22.20
2022-08-30T13:14:52.492Z,22.30
2022-08-30T13:17:20.442Z,22.50
2022-08-30T13:20:07.474Z,22.50
2022-08-30T13:22:40.583Z,22.50
2022-08-30T13:25:10.628Z,22.60
2022-08-30T13:27:39.336Z,23.10
2022-08-30T13:30:13.519Z,23.60
2022-08-30T13:32:43.225Z,23.40
2022-08-30T13:35:11.235Z,23.30
2022-08-30T13:37:49.360Z,22.90
2022-08-30T13:40:18.954Z,22.60
2022-08-30T13:42:46.738Z,22.40
2022-08-30T13:48:04.204Z,22.30
2022-08-30T13:50:31.691Z,22.40
2022-08-30T13:52:59.117Z,23.00
2022-08-30T13:55:26.715Z,23.70
2022-08-30T13:57:56.388Z,24.60
2022-08-30T14:00:26.555Z,24.90
2022-08-30T14:02:59.813Z,24.60
2022-08-30T14:05:54.642Z,23.90
2022-08-30T14:08:48.092Z,23.30
2022-08-30T14:11:21.083Z,22.60
2022-08-30T14:24:20.275Z,21.90
2022-08-30T14:26:51.291Z,22.00
2022-08-30T14:29:22.467Z,22.00
2022-08-30T14:31:52.281Z,22.00
2022-08-30T14:34:19.887Z,22.00
2022-08-30T14:36:47.446Z,22.00
2022-08-30T14:39:18.741Z,22.10
2022-08-30T14:41:55.331Z,22.20
2022-08-30T14:44:24.427Z,22.30
2022-08-30T14:46:52.470Z,22.40
2022-08-30T14:49:20.736Z,22.40
2022-08-30T14:51:49.274Z,22.40
2022-08-30T14:54:19.045Z,22.50
2022-08-30T14:56:47.749Z,22.60
2022-08-30T14:59:15.504Z,22.50
2022-08-30T15:01:45.121Z,22.40
2022-08-30T15:04:14.423Z,22.30
2022-08-30T15:06:45.331Z,22.30
2022-08-30T15:09:14.491Z,22.20
2022-08-30T15:11:46.918Z,22.10
2022-08-30T15:14:16.233Z,22.10
2022-08-30T15:16:44.270Z,22.00
2022-08-30T15:19:12.497Z,21.90
2022-08-30T15:21:43.138Z,21.90
2022-08-30T15:24:14.296Z,21.80
2022-08-30T15:26:44.806Z,21.70
2022-08-30T15:29:17.101Z,21.70
2022-08-30T15:31:46.355Z,21.70
2022-08-30T15:34:20.773Z,21.70
2022-08-30T15:36:53.706Z,21.80
2022-08-30T15:39:21.228Z,21.80
2022-08-30T15:41:54.619Z,21.80
2022-08-30T15:44:24.641Z,21.90
2022-08-30T15:46:52.140Z,22.00
2022-08-30T15:49:22.534Z,22.00
2022-08-30T15:51:53.872Z,22.00
2022-08-30T15:54:23.494Z,22.00
2022-08-30T15:56:58.998Z,22.00
2022-08-30T15:59:29.114Z,22.00
2022-08-30T16:01:57.364Z,21.90
2022-08-30T16:04:25.681Z,22.00
2022-08-30T16:06:53.311Z,21.90
2022-08-30T16:09:22.409Z,21.80
2022-08-30T16:11:49.910Z,21.80
2022-08-30T16:14:17.907Z,21.80
2022-08-30T16:16:48.821Z,21.80
2022-08-30T16:19:16.644Z,21.90
2022-08-30T16:21:44.192Z,21.90
2022-08-30T16:24:13.750Z,21.90
2022-08-30T16:26:43.156Z,21.90
2022-08-30T16:29:12.463Z,22.00
2022-08-30T16:31:41.010Z,22.00
2022-08-30T16:34:08.499Z,22.00
2022-08-30T16:36:36.203Z,22.00
2022-08-30T16:39:08.445Z,22.10
2022-08-30T16:41:36.674Z,22.10
2022-08-30T16:44:05.214Z,22.20
2022-08-30T16:46:34.048Z,22.10
2022-08-30T16:49:02.356Z,22.00
2022-08-30T16:51:32.159Z,22.00
2022-08-30T16:54:02.872Z,22.00
2022-08-30T16:56:32.307Z,22.00
2022-08-30T16:59:02.946Z,22.00
2022-08-30T17:01:34.902Z,22.00
2022-08-30T17:04:03.880Z,22.00
2022-08-30T17:06:32.151Z,21.90
2022-08-30T17:09:00.012Z,22.00
2022-08-30T17:11:27.560Z,22.00
2022-08-30T17:13:55.023Z,22.00
2022-08-30T17:16:27.657Z,22.00
2022-08-30T17:19:00.773Z,22.00
2022-08-30T17:21:29.812Z,22.00
2022-08-30T17:24:01.497Z,22.00
2022-08-30T17:26:35.245Z,21.90
2022-08-30T17:29:03.784Z,21.80
2022-08-30T17:31:31.599Z,21.80
2022-08-30T17:34:03.680Z,21.70
2022-08-30T17:36:35.395Z,21.60
2022-08-30T17:39:11.159Z,21.50
2022-08-30T17:41:49.701Z,21.40
2022-08-30T17:44:28.703Z,21.40
2022-08-30T17:46:57.478Z,21.40
2022-08-30T17:49:26.808Z,21.30
2022-08-30T17:51:56.894Z,21.30
2022-08-30T17:54:26.166Z,21.30
2022-08-30T17:56:54.770Z,21.30
2022-08-30T17:59:24.818Z,21.20
2022-08-30T18:01:54.720Z,21.20
2022-08-30T18:04:24.833Z,21.30
2022-08-30T18:06:53.260Z,21.20
2022-08-30T18:09:21.477Z,21.20
2022-08-30T18:11:49.011Z,21.20
2022-08-30T18:14:17.406Z,21.20
2022-08-30T18:16:50.509Z,21.10
2022-08-30T18:19:26.422Z,21.10
2022-08-30T18:21:55.281Z,21.10
2022-08-30T18:24:23.427Z,21.10
2022-08-30T18:26:51.369Z,21.00
2022-08-30T18:29:29.312Z,21.00
2022-08-30T18:32:02.890Z,21.00
2022-08-30T18:34:30.545Z,21.10
2022-08-30T18:36:58.168Z,21.00
2022-08-30T18:39:26.028Z,21.00
2022-08-30T18:44:43.522Z,20.90
2022-08-30T18:47:11.576Z,20.80
2022-08-30T18:49:39.026Z,20.80
2022-08-30T18:52:09.775Z,20.70
2022-08-30T18:54:38.861Z,20.70
2022-08-30T18:57:07.863Z,20.70
2022-08-30T18:59:38.751Z,20.60
2022-08-30T19:02:13.271Z,20.60
2022-08-30T19:04:42.786Z,20.60
2022-08-30T19:07:12.308Z,20.50
2022-08-30T19:09:39.998Z,20.50
2022-08-30T19:12:09.497Z,20.50
2022-08-30T19:14:37.311Z,20.50
2022-08-30T19:17:07.114Z,20.50
2022-08-30T19:19:46.379Z,20.40
2022-08-30T19:22:17.542Z,20.40
2022-08-30T19:24:46.943Z,20.40
2022-08-30T19:27:14.377Z,20.30
2022-08-30T19:29:42.118Z,20.40
2022-08-30T19:32:12.130Z,20.30
2022-08-30T19:34:42.156Z,20.30
2022-08-30T19:37:09.603Z,20.30
2022-08-30T19:39:43.105Z,20.20
2022-08-30T19:42:14.157Z,20.20
2022-08-30T19:44:41.618Z,20.20
2022-08-30T19:47:09.065Z,20.20
2022-08-30T19:49:37.024Z,20.10
2022-08-30T19:52:04.508Z,20.20
2022-08-30T19:54:31.883Z,20.10
2022-08-30T19:56:59.318Z,20.10
2022-08-30T19:59:27.967Z,20.10
2022-08-30T20:01:57.157Z,20.00
2022-08-30T20:04:25.653Z,19.90
2022-08-30T20:06:53.058Z,20.00
2022-08-30T20:09:22.300Z,19.90
2022-08-30T20:11:55.127Z,19.90
2022-08-30T20:14:26.191Z,19.80
2022-08-30T20:16:54.514Z,19.70
2022-08-30T20:19:27.747Z,19.70
2022-08-30T20:21:59.335Z,19.70
2022-08-30T20:24:28.727Z,20.90
2022-08-30T20:27:14.879Z,19.60
2022-08-30T20:29:42.397Z,19.60
2022-08-30T20:32:24.618Z,19.50
2022-08-30T20:35:08.096Z,19.50
2022-08-30T20:37:50.994Z,19.50
2022-08-30T20:40:20.679Z,19.50
2022-08-30T20:42:48.223Z,19.40
2022-08-30T20:45:17.670Z,19.40
2022-08-30T20:47:45.281Z,19.30
2022-08-30T20:50:15.824Z,19.30
2022-08-30T20:52:44.079Z,19.30
2022-08-30T20:55:13.453Z,19.30
2022-08-30T20:57:41.188Z,19.20
2022-08-30T21:00:11.887Z,19.20
2022-08-30T21:02:46.584Z,19.20
2022-08-30T21:05:16.681Z,19.20
2022-08-30T21:07:46.119Z,19.20
2022-08-30T21:10:13.993Z,19.20
2022-08-30T21:12:42.830Z,19.20
2022-08-30T21:15:34.019Z,19.20
2022-08-30T21:18:00.187Z,19.10
2022-08-30T21:20:28.715Z,19.20
2022-08-30T21:22:56.145Z,19.20
2022-08-30T21:25:23.547Z,19.20
2022-08-30T21:27:53.053Z,19.20
2022-08-30T21:30:20.809Z,19.10
2022-08-30T21:32:48.207Z,19.10
2022-08-30T21:35:34.131Z,19.10
2022-08-30T21:38:04.330Z,19.10
2022-08-30T21:40:31.921Z,19.00
2022-08-30T21:43:02.534Z,19.00
2022-08-30T21:45:40.461Z,19.00
2022-08-30T21:48:08.452Z,19.00
2022-08-30T21:50:38.634Z,18.90
2022-08-30T21:53:06.094Z,18.90
2022-08-30T21:55:33.523Z,18.90
2022-08-30T21:58:00.948Z,18.90
2022-08-30T22:00:28.350Z,18.80
2022-08-30T22:02:55.825Z,18.80
2022-08-30T22:05:23.394Z,18.80
2022-08-30T22:07:50.869Z,18.70
2022-08-30T22:10:19.666Z,18.70
2022-08-30T22:12:47.423Z,18.70
2022-08-30T22:15:15.152Z,18.70
2022-08-30T22:17:43.970Z,18.60
2022-08-30T22:20:12.029Z,18.60
2022-08-30T22:22:46.017Z,18.60
2022-08-30T22:25:13.686Z,18.60
2022-08-30T22:27:41.092Z,18.50
2022-08-30T22:30:09.039Z,18.40
2022-08-30T22:32:38.182Z,18.40
2022-08-30T22:35:06.412Z,18.40
2022-08-30T22:37:34.715Z,18.40
2022-08-30T22:40:02.354Z,18.40
2022-08-30T22:42:29.805Z,18.40
2022-08-30T22:44:57.175Z,18.40
2022-08-30T22:47:24.565Z,18.40
2022-08-30T22:49:52.208Z,18.40
2022-08-30T22:52:24.116Z,18.30
2022-08-30T22:54:53.039Z,18.30
2022-08-30T22:57:20.442Z,18.30
2022-08-30T22:59:48.675Z,18.30
2022-08-30T23:02:16.172Z,18.30
2022-08-30T23:04:44.051Z,18.30
2022-08-30T23:07:11.577Z,18.30
2022-08-30T23:09:39.116Z,18.30
2022-08-30T23:12:06.657Z,18.20
2022-08-30T23:14:34.029Z,18.20
2022-08-30T23:17:01.444Z,18.10
2022-08-30T23:19:28.706Z,18.00
2022-08-30T23:21:55.929Z,18.00
2022-08-30T23:24:41.635Z,17.90
2022-08-30T23:27:32.259Z,17.90
2022-08-30T23:30:18.214Z,17.80
2022-08-30T23:33:04.156Z,17.80
2022-08-30T23:35:50.008Z,17.80
2022-08-30T23:38:35.710Z,17.80
2022-08-30T23:41:21.633Z,17.80
2022-08-30T23:44:07.641Z,17.70
2022-08-30T23:46:53.811Z,17.70
2022-08-30T23:49:39.779Z,17.70
2022-08-30T23:52:25.641Z,17.70
2022-08-30T23:55:12.669Z,17.60
2022-08-30T23:57:58.641Z,17.50
